createdAt,value
2023-04-13T09:28:50.122Z,979.56
2023-04-13T09:29:50.017Z,979.53
2023-04-13T09:30:50.258Z,979.59
2023-04-13T09:31:50.256Z,979.62
2023-04-13T09:33:49.701Z,979.64
2023-04-13T09:34:49.613Z,979.69
2023-04-13T09:35:49.535Z,979.66
2023-04-13T09:36:54.559Z,979.68
2023-04-13T09:37:49.372Z,979.73
2023-04-13T09:38:49.299Z,979.75
2023-04-13T09:39:49.212Z,979.76
2023-04-13T09:40:49.132Z,979.76
2023-04-13T09:41:49.067Z,979.74
2023-04-13T09:42:49.184Z,979.70
2023-04-13T09:43:49.095Z,979.73
2023-04-13T09:44:48.833Z,979.72
2023-04-13T09:45:48.733Z,979.70
2023-04-13T09:46:48.754Z,979.69
2023-04-13T09:47:48.661Z,979.70
2023-04-13T09:48:48.494Z,979.60
2023-04-13T09:49:48.412Z,979.71
2023-04-13T09:50:48.342Z,979.66
2023-04-13T09:51:48.251Z,979.62
2023-04-13T09:52:48.179Z,979.62
2023-04-13T09:53:48.096Z,979.59
2023-04-13T09:54:48.868Z,979.56
2023-04-13T09:55:47.933Z,979.62
2023-04-13T09:56:47.879Z,979.58
2023-04-13T09:57:47.775Z,979.54
2023-04-13T09:58:47.730Z,979.53
2023-04-13T09:59:47.611Z,979.55
2023-04-13T10:00:47.551Z,979.56
2023-04-13T10:01:47.744Z,979.58
2023-04-13T10:02:47.683Z,979.60
2023-04-13T10:03:47.312Z,979.63
2023-04-13T10:04:47.238Z,979.57
2023-04-13T10:05:58.649Z,979.59
2023-04-13T10:06:47.070Z,979.57
2023-04-13T10:07:46.965Z,979.59
2023-04-13T10:08:46.884Z,979.61
2023-04-13T10:09:46.808Z,979.68
2023-04-13T10:10:48.264Z,979.68
2023-04-13T10:11:46.681Z,979.76
2023-04-13T10:12:46.560Z,979.73
2023-04-13T10:13:46.532Z,979.61
2023-04-13T10:14:46.402Z,979.73
2023-04-13T10:15:46.362Z,979.76
2023-04-13T10:16:46.406Z,979.77
2023-04-13T10:17:46.224Z,979.79
2023-04-13T10:18:46.119Z,979.75
2023-04-13T10:19:46.022Z,979.78
2023-04-13T10:20:45.914Z,979.72
2023-04-13T10:21:45.858Z,979.73
2023-04-13T10:22:45.795Z,979.74
2023-04-13T10:23:45.924Z,979.75
2023-04-13T10:24:45.597Z,979.78
2023-04-13T10:25:45.522Z,979.82
2023-04-13T10:26:45.426Z,979.78
2023-04-13T10:27:45.367Z,979.79
2023-04-13T10:28:45.295Z,979.75
2023-04-13T10:29:45.263Z,979.78
2023-04-13T10:30:45.106Z,979.82
2023-04-13T10:31:45.225Z,979.77
2023-04-13T10:32:44.975Z,979.78
2023-04-13T10:33:45.358Z,979.80
2023-04-13T10:34:44.786Z,979.82
2023-04-13T10:35:44.704Z,979.81
2023-04-13T10:36:44.640Z,979.77
2023-04-13T10:37:44.592Z,979.76
2023-04-13T10:38:44.462Z,979.75
2023-04-13T10:39:44.385Z,979.76
2023-04-13T10:40:44.303Z,979.73
2023-04-13T10:41:44.425Z,979.80
2023-04-13T10:43:44.069Z,979.76
2023-04-13T10:44:43.988Z,979.89
2023-04-13T10:45:43.914Z,979.86
2023-04-13T10:46:43.839Z,979.90
2023-04-13T11:10:57.933Z,979.98
2023-04-13T11:11:41.869Z,979.97
2023-04-13T11:14:41.644Z,980.07
2023-04-13T11:21:45.410Z,979.89
2023-04-13T11:22:47.486Z,979.99
2023-04-13T11:23:45.157Z,979.92
2023-04-13T11:24:45.093Z,980.04
2023-04-13T11:25:45.018Z,979.98
2023-04-13T11:26:44.946Z,979.94
2023-04-13T11:27:44.855Z,979.96
2023-04-13T11:28:44.773Z,979.97
2023-04-13T11:29:44.699Z,979.89
2023-04-13T11:30:44.621Z,979.90
2023-04-13T11:31:44.563Z,979.91
2023-04-13T11:32:44.517Z,979.88
2023-04-13T11:33:44.458Z,979.89
2023-04-13T11:34:44.317Z,979.87
2023-04-13T11:35:49.944Z,979.81
2023-04-13T11:36:44.161Z,979.77
2023-04-13T11:37:44.091Z,979.77
2023-04-13T11:38:44.019Z,979.82
2023-04-13T11:39:43.941Z,979.82
2023-04-13T11:40:43.862Z,979.79
2023-04-13T11:41:43.821Z,979.80
2023-04-13T11:42:43.723Z,979.86
2023-04-13T11:43:43.628Z,979.74
2023-04-13T11:44:43.555Z,979.77
2023-04-13T11:45:43.546Z,979.78
2023-04-13T11:46:43.490Z,979.76
2023-04-13T11:47:43.368Z,979.72
2023-04-13T11:48:43.750Z,979.90
2023-04-13T11:49:43.171Z,979.92
2023-04-13T11:50:43.093Z,979.96
2023-04-13T11:51:43.018Z,979.91
2023-04-13T11:52:42.938Z,980.02
2023-04-13T11:53:42.863Z,979.76
2023-04-13T11:54:42.794Z,979.75
2023-04-13T11:55:52.917Z,979.70
2023-04-13T11:56:42.642Z,979.59
2023-04-13T12:24:12.573Z,980.30
2023-04-13T12:25:13.130Z,980.32
2023-04-13T12:28:12.231Z,980.29
2023-04-13T12:29:12.166Z,980.34
2023-04-13T12:32:37.791Z,980.30
2023-04-13T12:33:37.682Z,980.26
2023-04-13T12:34:37.613Z,980.26
2023-04-13T12:35:37.541Z,980.43
2023-04-13T12:36:37.788Z,980.28
2023-04-13T12:37:37.406Z,980.32
2023-04-13T12:38:37.340Z,980.39
2023-04-13T13:23:19.107Z,979.38
2023-04-13T13:24:19.078Z,979.46
2023-04-13T13:25:18.952Z,980.08
2023-04-13T13:26:23.820Z,980.19
2023-04-13T13:27:58.701Z,980.14
2023-04-13T13:28:18.747Z,980.03
2023-04-13T13:29:18.665Z,980.03
2023-04-13T13:30:18.616Z,980.06
2023-04-13T13:31:18.579Z,979.53
2023-04-13T13:32:19.974Z,979.58
2023-04-13T13:33:18.419Z,979.53
2023-04-13T13:34:18.308Z,980.06
2023-04-13T13:35:18.235Z,980.06
2023-04-13T13:36:18.388Z,979.54
2023-04-13T13:37:18.095Z,979.56
2023-04-13T13:38:18.030Z,979.61
2023-04-13T13:39:17.993Z,979.56
2023-04-13T13:40:17.899Z,979.57
2023-04-13T13:41:17.822Z,979.49
2023-04-13T13:42:17.741Z,979.48
2023-04-13T13:43:17.877Z,979.55
2023-04-13T13:44:17.665Z,979.54
2023-04-13T13:45:17.526Z,979.53
2023-04-13T13:46:17.518Z,979.50
2023-04-13T13:47:17.421Z,979.49
2023-04-13T13:48:17.307Z,979.49
2023-04-13T13:49:17.239Z,979.50
2023-04-13T13:50:17.156Z,979.46
2023-04-13T13:51:17.104Z,979.50
2023-04-13T13:52:17.013Z,979.47
2023-04-13T13:53:16.945Z,979.46
2023-04-13T13:54:17.124Z,979.45
2023-04-13T13:56:09.311Z,979.45
2023-04-13T13:57:09.208Z,979.53
2023-04-13T14:00:08.976Z,979.49
2023-04-13T14:01:08.923Z,979.49
2023-04-13T14:02:08.908Z,979.45
2023-04-13T14:04:01.541Z,979.83
2023-04-13T14:05:01.176Z,979.85
2023-04-13T14:06:01.137Z,979.88
2023-04-13T14:07:01.009Z,979.92
2023-04-13T14:08:00.944Z,979.91
2023-04-13T14:09:01.049Z,979.91
2023-04-13T14:10:00.787Z,979.96
2023-04-13T14:11:00.715Z,979.74
2023-04-13T14:12:00.656Z,979.74
2023-04-13T14:13:00.558Z,979.95
2023-04-13T14:14:07.858Z,980.06
2023-04-13T14:15:00.413Z,979.97
2023-04-13T14:16:00.380Z,979.68
2023-04-13T14:17:00.268Z,979.64
2023-04-13T14:19:00.275Z,979.66
2023-04-13T14:20:00.046Z,979.87
2023-04-13T14:20:59.975Z,979.65
2023-04-13T14:21:59.906Z,979.62
2023-04-13T14:22:59.828Z,979.60
2023-04-13T14:23:59.867Z,979.59
2023-04-13T14:24:59.681Z,979.58
2023-04-13T14:25:59.610Z,979.63
2023-04-13T14:26:59.535Z,979.61
2023-04-13T14:27:59.481Z,979.56
2023-04-13T14:28:59.656Z,979.58
2023-04-13T14:29:59.310Z,979.60
2023-04-13T14:30:59.270Z,979.72
2023-04-13T14:31:59.164Z,979.76
2023-04-13T14:32:59.121Z,979.76
2023-04-13T14:33:59.014Z,979.82
2023-04-13T14:34:58.939Z,979.80
2023-04-13T14:35:58.861Z,979.79
2023-04-13T14:36:58.787Z,979.78
2023-04-13T14:37:58.719Z,979.83
2023-04-13T14:38:58.999Z,979.88
2023-04-13T14:39:58.555Z,979.91
2023-04-13T14:40:58.484Z,980.00
2023-04-13T14:41:58.403Z,979.96
2023-04-13T14:42:58.335Z,980.00
2023-04-13T14:43:58.265Z,980.13
2023-04-13T14:44:58.266Z,980.11
2023-04-13T14:45:58.113Z,980.07
2023-04-13T14:46:58.192Z,980.09
2023-04-13T14:47:58.038Z,980.10
2023-04-13T14:48:57.999Z,980.10
2023-04-13T14:49:57.784Z,980.06
2023-04-13T14:50:57.701Z,980.05
2023-04-13T14:51:57.652Z,980.05
2023-04-13T14:52:57.545Z,980.04
2023-04-13T14:53:58.903Z,980.01
2023-04-13T14:54:57.387Z,980.03
2023-04-13T14:57:04.833Z,980.03
2023-04-13T14:58:04.727Z,980.08
2023-04-13T14:59:04.664Z,980.09
2023-04-13T15:21:24.918Z,980.30
2023-04-13T15:22:24.832Z,980.35
2023-04-13T15:23:24.737Z,980.36
2023-04-13T15:24:24.663Z,980.39
2023-04-13T15:25:24.579Z,980.40
2023-04-13T15:26:24.554Z,980.38
2023-04-13T15:27:24.496Z,980.41
2023-04-13T15:28:24.339Z,980.46
2023-04-13T15:29:25.790Z,980.48
2023-04-13T15:30:24.679Z,980.45
2023-04-13T15:31:24.220Z,980.46
2023-04-13T15:32:24.077Z,980.48
2023-04-13T15:33:23.975Z,980.51
2023-04-13T15:34:23.862Z,980.51
2023-04-13T15:35:25.680Z,980.51
2023-04-13T15:36:23.725Z,980.51
2023-04-13T15:37:23.656Z,980.55
2023-04-13T15:38:23.551Z,980.56
2023-04-13T15:39:23.473Z,980.56
2023-04-13T15:40:23.422Z,980.61
2023-04-13T15:41:24.950Z,980.57
2023-04-13T15:42:23.256Z,980.61
2023-04-13T15:43:23.172Z,980.65
2023-04-13T15:45:10.577Z,980.60
2023-04-13T15:46:10.550Z,980.61
2023-04-13T15:47:10.422Z,980.59
2023-04-13T15:48:13.368Z,980.64
2023-04-13T15:49:10.274Z,980.64
2023-04-13T15:50:10.191Z,980.70
2023-04-13T15:51:10.111Z,980.71
2023-04-13T15:52:10.046Z,980.65
2023-04-13T15:53:09.981Z,980.69
2023-04-13T15:54:09.883Z,980.69
2023-04-13T15:55:09.814Z,980.68
2023-04-13T15:56:09.737Z,980.68
2023-04-13T15:57:09.660Z,980.69
2023-04-13T15:58:09.588Z,980.67
2023-04-13T15:59:09.510Z,980.69
2023-04-13T16:00:09.506Z,980.67
2023-04-13T16:01:09.457Z,980.68
2023-04-13T16:02:09.382Z,980.75
2023-04-13T16:03:09.443Z,980.71
2023-04-13T16:04:09.287Z,980.71
2023-04-13T16:05:09.068Z,980.73
2023-04-13T16:06:08.995Z,980.72
2023-04-13T16:07:14.272Z,980.70
2023-04-13T16:08:08.843Z,980.67
2023-04-13T16:09:08.792Z,980.68
2023-04-13T16:10:08.692Z,980.71
2023-04-13T16:11:08.619Z,980.70
2023-04-13T16:12:08.545Z,980.69
2023-04-13T16:13:08.483Z,980.72
2023-04-13T16:14:08.403Z,980.71
2023-04-13T16:15:08.324Z,980.71
2023-04-13T16:16:08.307Z,980.73
2023-04-13T16:17:08.181Z,980.73
2023-04-13T16:18:08.185Z,980.73
2023-04-13T16:19:08.031Z,980.73
2023-04-13T16:20:07.957Z,980.73
2023-04-13T16:21:07.902Z,980.73
2023-04-13T16:22:07.817Z,980.70
2023-04-13T16:23:07.738Z,980.74
2023-04-13T16:24:07.663Z,980.79
2023-04-13T16:25:07.607Z,980.78
2023-04-13T16:26:07.583Z,980.77
2023-04-13T16:27:07.437Z,980.75
2023-04-13T16:28:07.362Z,980.78
2023-04-13T16:29:07.290Z,980.73
2023-04-13T16:30:07.237Z,980.70
2023-04-13T16:31:07.180Z,980.68
2023-04-13T16:32:07.064Z,980.66
2023-04-13T16:33:07.025Z,980.63
2023-04-13T16:34:18.033Z,980.64
2023-04-13T16:35:06.837Z,980.64
2023-04-13T16:36:07.216Z,980.63
2023-04-13T16:37:06.898Z,980.66
2023-04-13T16:38:06.604Z,980.67
2023-04-13T16:39:06.542Z,980.68
2023-04-13T16:40:06.564Z,980.72
2023-04-13T16:41:06.398Z,980.71
2023-04-13T16:42:09.122Z,980.75
2023-04-13T16:43:06.222Z,980.76
2023-04-13T16:44:06.152Z,980.79
2023-04-13T16:45:06.110Z,980.78
2023-04-13T16:46:06.006Z,980.79
2023-04-13T16:47:05.921Z,980.82
2023-04-13T17:19:45.107Z,981.01
2023-04-13T17:20:44.995Z,981.01
2023-04-13T17:21:44.918Z,980.98
2023-04-13T17:22:44.844Z,981.03
2023-04-13T17:23:44.754Z,981.02
2023-04-13T17:24:44.725Z,981.01
2023-04-13T17:25:44.594Z,981.04
2023-04-13T17:26:44.513Z,981.04
2023-04-13T17:27:44.474Z,981.05
2023-04-13T17:28:44.510Z,981.07
2023-04-13T17:29:44.310Z,981.06
2023-04-13T17:30:44.433Z,981.05
2023-04-13T17:32:56.656Z,981.06
2023-04-13T17:33:56.528Z,981.04
2023-04-13T17:34:56.508Z,981.04
2023-04-13T17:35:56.376Z,981.03
2023-04-13T17:36:56.288Z,981.03
2023-04-13T17:37:56.206Z,981.01
2023-04-13T17:38:56.425Z,981.01
2023-04-13T17:39:56.074Z,981.05
2023-04-13T17:40:55.968Z,981.02
2023-04-13T17:41:56.298Z,981.06
2023-04-13T17:42:55.811Z,981.03
2023-04-13T17:43:55.723Z,981.04
2023-04-13T17:44:55.643Z,981.04
2023-04-13T17:45:55.587Z,981.02
2023-04-13T17:46:55.928Z,981.00
2023-04-13T17:47:55.578Z,981.00
2023-04-13T17:49:55.529Z,981.02
2023-04-13T17:51:56.058Z,980.97
2023-04-13T17:52:55.641Z,981.00
2023-04-13T17:53:55.930Z,981.03
2023-04-13T17:54:54.835Z,981.03
2023-04-13T17:55:54.805Z,981.05
2023-04-13T17:56:54.824Z,981.03
2023-04-13T17:57:54.596Z,981.02
2023-04-13T17:58:54.520Z,981.06
2023-04-13T18:08:36.353Z,981.04
2023-04-13T18:09:36.152Z,981.05
2023-04-13T18:10:36.087Z,981.04
2023-04-13T18:11:35.990Z,981.07
2023-04-13T18:12:36.113Z,981.08
2023-04-13T18:13:35.834Z,981.11
2023-04-13T18:14:35.906Z,981.14
2023-04-13T18:15:35.678Z,981.16
2023-04-13T18:16:35.635Z,981.18
2023-04-13T18:17:35.538Z,981.21
2023-04-13T18:18:35.422Z,981.19
2023-04-13T18:19:35.353Z,981.20
2023-04-13T18:20:35.261Z,981.22
2023-04-13T18:21:35.428Z,981.22
2023-04-13T18:22:35.103Z,981.23
2023-04-13T18:23:35.016Z,981.27
2023-04-13T18:24:34.978Z,981.30
2023-04-13T18:25:34.860Z,981.33
2023-04-13T18:26:34.774Z,981.35
2023-04-13T18:27:34.690Z,981.36
2023-04-13T18:28:34.848Z,981.36
2023-04-13T18:36:26.374Z,981.55
2023-04-13T18:37:26.495Z,981.59
2023-04-13T18:38:26.209Z,981.60
2023-04-13T18:39:26.139Z,981.56
2023-04-13T18:40:26.059Z,981.60
2023-04-13T18:41:25.957Z,981.60
2023-04-13T18:42:25.894Z,981.63
2023-04-13T18:43:25.793Z,981.61
2023-04-13T18:44:25.715Z,981.53
2023-04-13T18:45:25.783Z,981.53
2023-04-13T18:46:25.589Z,981.55
2023-04-13T18:47:25.485Z,981.51
2023-04-13T18:48:25.388Z,981.54
2023-04-13T18:49:25.301Z,981.54
2023-04-13T18:50:25.224Z,981.54
2023-04-13T18:51:25.284Z,981.54
2023-04-13T18:52:25.056Z,981.53
2023-04-13T18:53:24.970Z,981.54
2023-04-13T18:54:24.893Z,981.60
2023-04-13T18:55:24.805Z,981.60
2023-04-13T18:56:24.744Z,981.63
2023-04-13T18:57:24.646Z,981.67
2023-04-13T18:58:24.597Z,981.65
2023-04-13T18:59:24.497Z,981.64
2023-04-13T19:00:24.391Z,981.62
2023-04-13T19:01:24.386Z,981.60
2023-04-13T19:02:24.357Z,981.61
2023-04-13T19:03:24.268Z,981.63
2023-04-13T19:04:24.147Z,981.61
2023-04-13T19:05:23.988Z,981.61
2023-04-13T19:06:24.147Z,981.62
2023-04-13T19:07:23.818Z,981.61
2023-04-13T19:08:23.730Z,981.58
2023-04-13T19:09:23.652Z,981.59
2023-04-13T19:10:23.577Z,981.60
2023-04-13T19:11:23.481Z,981.63
2023-04-13T19:12:23.421Z,981.62
2023-04-13T19:14:11.248Z,981.68
2023-04-13T19:15:11.170Z,981.70
2023-04-13T19:16:11.103Z,981.72
2023-04-13T19:17:10.998Z,981.70
2023-04-13T19:18:13.536Z,981.70
2023-04-13T19:19:10.832Z,981.71
2023-04-13T19:20:10.747Z,981.70
2023-04-13T19:33:18.754Z,981.64
2023-04-13T19:34:18.653Z,981.65
2023-04-13T19:35:18.578Z,981.64
2023-04-13T19:36:18.498Z,981.66
2023-04-13T19:37:18.416Z,981.66
2023-04-13T19:38:18.618Z,981.62
2023-04-13T19:39:18.442Z,981.63
2023-04-13T19:40:18.352Z,981.65
2023-04-13T19:41:18.265Z,981.61
2023-04-13T19:42:17.985Z,981.61
2023-04-13T19:43:17.899Z,981.62
2023-04-13T19:44:17.920Z,981.64
2023-04-13T19:45:17.739Z,981.64
2023-04-13T19:46:17.676Z,981.64
2023-04-13T19:47:20.237Z,981.65
2023-04-13T19:48:59.989Z,981.68
2023-04-13T19:49:59.872Z,981.66
2023-04-13T19:50:59.798Z,981.69
2023-04-13T19:51:59.712Z,981.66
2023-04-13T19:52:59.663Z,981.68
2023-04-13T19:53:59.862Z,981.67
2023-04-13T19:54:59.468Z,981.71
2023-04-13T19:55:59.371Z,981.65
2023-04-13T19:56:59.297Z,981.66
2023-04-13T19:57:59.204Z,981.69
2023-04-13T19:58:59.421Z,981.67
2023-04-13T19:59:59.035Z,981.65
2023-04-13T20:00:59.003Z,981.63
2023-04-13T20:01:59.066Z,981.63
2023-04-13T20:02:58.937Z,981.63
2023-04-13T20:03:59.021Z,981.61
2023-04-13T20:04:58.639Z,981.59
2023-04-13T20:05:58.530Z,981.60
2023-04-13T20:06:58.654Z,981.59
2023-04-13T20:07:58.367Z,981.65
2023-04-13T20:08:58.284Z,981.61
2023-04-13T20:09:58.200Z,981.62
2023-04-13T20:10:59.860Z,981.59
2023-04-13T20:11:58.029Z,981.63
2023-04-13T20:12:57.943Z,981.63
2023-04-13T20:13:58.028Z,981.61
2023-04-13T20:14:57.775Z,981.63
2023-04-13T20:15:57.717Z,981.62
2023-04-13T20:16:57.607Z,981.58
2023-04-13T20:17:57.636Z,981.61
2023-04-13T20:18:57.439Z,981.60
2023-04-13T20:19:57.361Z,981.60
2023-04-13T20:20:57.291Z,981.61
2023-04-13T20:21:57.193Z,981.61
2023-04-13T20:22:57.101Z,981.63
2023-04-13T20:23:57.108Z,981.61
2023-04-13T20:24:56.940Z,981.62
2023-04-13T20:25:56.846Z,981.63
2023-04-13T20:26:56.766Z,981.64
2023-04-13T20:27:56.695Z,981.66
2023-04-13T20:28:56.621Z,981.68
2023-04-13T20:29:56.511Z,981.70
2023-04-13T20:30:56.453Z,981.67
2023-04-13T20:31:56.402Z,981.66
2023-04-13T20:32:56.342Z,981.71
2023-04-13T20:33:56.182Z,981.72
2023-04-13T20:34:56.092Z,981.71
2023-04-13T20:35:56.263Z,981.70
2023-04-13T20:36:55.946Z,981.70
2023-04-13T20:37:55.839Z,981.70
2023-04-13T20:38:55.802Z,981.74
2023-04-13T20:39:55.682Z,981.75
2023-04-13T20:40:55.584Z,981.73
2023-04-13T20:41:55.607Z,981.73
2023-04-13T20:42:55.437Z,981.71
2023-04-13T20:43:55.331Z,981.75
2023-04-13T20:44:55.260Z,981.76
2023-04-13T20:45:55.166Z,981.76
2023-04-13T20:46:55.421Z,981.79
2023-04-13T20:47:55.036Z,981.83
2023-04-13T20:48:54.953Z,981.78
2023-04-13T20:49:54.835Z,981.80
2023-04-13T20:50:54.749Z,981.79
2023-04-13T20:51:54.668Z,981.82
2023-04-13T20:52:54.597Z,981.86
2023-04-13T20:53:54.504Z,981.87
2023-04-13T20:54:54.416Z,981.86
2023-04-13T20:55:54.330Z,981.86
2023-04-13T20:56:54.261Z,981.90
2023-04-13T20:57:54.163Z,981.87
2023-04-13T20:58:54.081Z,981.90
2023-04-13T20:59:54.390Z,981.87
2023-04-13T21:00:53.938Z,981.91
2023-04-13T21:01:53.861Z,981.90
2023-04-13T21:02:53.843Z,981.96
2023-04-13T21:03:53.775Z,981.92
2023-04-13T21:04:53.728Z,981.92
2023-04-13T21:05:53.495Z,981.87
2023-04-13T21:06:53.410Z,981.95
2023-04-13T21:07:54.765Z,981.89
2023-04-13T21:08:53.260Z,981.92
2023-04-13T21:09:53.171Z,981.93
2023-04-13T21:10:53.083Z,981.89
2023-04-13T21:11:52.991Z,981.89
2023-04-13T21:12:52.906Z,981.86
2023-04-13T21:13:52.830Z,981.84
2023-04-13T21:14:52.741Z,981.83
2023-04-13T21:15:52.655Z,981.84
2023-04-13T21:16:52.707Z,981.82
2023-04-13T21:17:52.566Z,981.83
2023-04-13T21:18:52.416Z,981.85
2023-04-13T21:19:52.323Z,981.84
2023-04-13T21:20:52.236Z,981.86
2023-04-13T21:21:52.152Z,981.86
2023-04-13T21:22:52.124Z,981.89
2023-04-13T21:23:51.989Z,981.88
2023-04-13T21:24:51.927Z,981.89
2023-04-13T21:25:51.832Z,981.91
2023-04-13T21:26:51.733Z,981.93
2023-04-13T21:27:51.650Z,981.94
2023-04-13T21:28:51.565Z,981.88
2023-04-13T21:29:51.482Z,981.92
2023-04-13T21:30:51.398Z,981.92
2023-04-13T21:31:51.360Z,981.93
2023-04-13T21:32:51.311Z,981.91
2023-04-13T21:33:51.147Z,981.95
2023-04-13T21:34:51.066Z,981.92
2023-04-13T21:35:51.079Z,981.98
2023-04-13T21:36:52.267Z,981.94
2023-04-13T21:37:50.834Z,981.97
2023-04-13T21:38:50.740Z,981.96
2023-04-13T21:39:50.644Z,981.97
2023-04-13T21:40:50.584Z,981.93
2023-04-13T21:41:50.684Z,981.97
2023-04-13T21:42:50.396Z,981.94
2023-04-13T21:43:50.367Z,981.95
2023-04-13T21:44:50.228Z,981.96
2023-04-13T21:45:50.205Z,981.93
2023-04-13T21:46:50.411Z,981.91
2023-04-13T21:47:49.983Z,981.93
2023-04-13T21:48:49.897Z,981.92
2023-04-13T21:49:49.817Z,981.92
2023-04-13T21:50:49.725Z,981.90
2023-04-13T21:51:49.646Z,981.91
2023-04-13T21:52:49.561Z,981.92
2023-04-13T21:53:49.484Z,981.90
2023-04-13T21:54:51.514Z,981.89
2023-04-13T21:55:49.309Z,981.89
2023-04-13T21:56:49.288Z,981.89
2023-04-13T21:57:49.142Z,981.92
2023-04-13T21:58:49.062Z,981.93
2023-04-13T21:59:48.976Z,981.92
2023-04-13T22:00:48.942Z,981.93
2023-04-13T22:01:48.891Z,981.90
2023-04-13T22:03:31.467Z,981.88
2023-04-13T22:04:31.382Z,981.90
2023-04-13T22:05:31.049Z,981.92
2023-04-13T22:06:30.953Z,981.89
2023-04-13T22:07:41.904Z,981.89
2023-04-13T22:08:31.186Z,981.85
2023-04-13T22:09:30.706Z,981.87
2023-04-13T22:10:30.768Z,981.81
2023-04-13T22:11:30.536Z,981.81
2023-04-13T22:12:30.472Z,981.79
2023-04-13T22:13:30.373Z,981.78
2023-04-13T22:14:30.286Z,981.75
2023-04-13T22:15:30.229Z,981.77
2023-04-13T22:16:30.129Z,981.73
2023-04-13T22:17:30.093Z,981.75
2023-04-13T22:18:29.969Z,981.77
2023-04-13T22:19:29.867Z,981.76
2023-04-13T22:20:29.783Z,981.78
2023-04-13T22:21:29.734Z,981.80
2023-04-13T22:22:29.614Z,981.78
2023-04-13T22:23:29.558Z,981.82
2023-04-13T22:24:29.448Z,981.85
2023-04-13T22:25:29.372Z,981.91
2023-04-13T22:26:29.281Z,981.88
2023-04-13T22:27:29.196Z,981.92
2023-04-13T22:28:29.135Z,981.93
2023-04-13T22:29:29.029Z,981.96
2023-04-13T22:30:28.965Z,981.92
2023-04-13T22:31:28.945Z,981.94
2023-04-13T22:32:28.887Z,981.93
2023-04-13T22:33:28.698Z,981.94
2023-04-13T22:34:28.609Z,981.94
2023-04-13T22:35:28.524Z,981.97
2023-04-13T22:36:28.448Z,981.97
2023-04-13T22:37:28.365Z,981.98
2023-04-13T22:38:28.285Z,981.94
2023-04-13T22:39:28.188Z,981.93
2023-04-13T22:40:28.104Z,981.96
2023-04-13T22:41:28.028Z,981.93
2023-04-13T22:42:27.936Z,981.95
2023-04-13T22:43:28.107Z,981.95
2023-04-13T22:44:27.796Z,981.96
2023-04-13T22:45:27.685Z,981.95
2023-04-13T22:46:27.643Z,981.95
2023-04-13T22:47:27.581Z,981.93
2023-04-13T22:48:27.451Z,981.93
2023-04-13T22:49:27.349Z,981.95
2023-04-13T22:50:27.288Z,981.93
2023-04-13T22:51:27.184Z,981.95
2023-04-13T22:52:27.118Z,981.97
2023-04-13T22:53:27.061Z,982.00
2023-04-13T22:54:26.927Z,982.00
2023-04-13T22:55:26.840Z,982.00
2023-04-13T22:56:26.760Z,981.99
2023-04-13T22:57:26.672Z,982.02
2023-04-13T22:58:26.689Z,982.06
2023-04-13T22:59:26.514Z,982.00
2023-04-13T23:00:26.633Z,982.08
2023-04-13T23:01:26.666Z,982.11
2023-04-13T23:02:26.445Z,982.14
2023-04-13T23:03:26.291Z,982.15
2023-04-13T23:04:26.118Z,982.18
2023-04-13T23:05:25.999Z,982.18
2023-04-13T23:06:25.914Z,982.20
2023-04-13T23:07:25.829Z,982.19
2023-04-13T23:08:25.762Z,982.21
2023-04-13T23:09:25.666Z,982.16
2023-04-13T23:10:25.581Z,982.16
2023-04-13T23:11:25.491Z,982.14
2023-04-13T23:12:25.407Z,982.17
2023-04-13T23:13:25.325Z,982.15
2023-04-13T23:14:25.250Z,982.19
2023-04-13T23:15:25.156Z,982.17
2023-04-13T23:16:25.167Z,982.17
2023-04-13T23:17:25.291Z,982.14
2023-04-13T23:18:24.901Z,982.15
2023-04-13T23:19:24.817Z,982.16
2023-04-13T23:20:24.733Z,982.17
2023-04-13T23:21:24.651Z,982.16
2023-04-13T23:22:24.572Z,982.22
2023-04-13T23:23:24.483Z,982.20
2023-04-13T23:24:24.405Z,982.19
2023-04-13T23:25:24.321Z,982.22
2023-04-13T23:26:24.232Z,982.17
2023-04-13T23:27:24.147Z,982.19
2023-04-13T23:28:24.062Z,982.20
2023-04-13T23:29:24.021Z,982.15
2023-04-13T23:30:23.921Z,982.20
2023-04-13T23:31:23.830Z,982.18
2023-04-13T23:32:23.789Z,982.15
2023-04-13T23:33:23.670Z,982.20
2023-04-13T23:34:23.594Z,982.20
2023-04-13T23:35:23.492Z,982.20
2023-04-13T23:36:23.430Z,982.20
2023-04-13T23:37:23.345Z,982.23
2023-04-13T23:38:23.268Z,982.21
2023-04-13T23:39:23.385Z,982.24
2023-04-13T23:40:23.092Z,982.27
2023-04-13T23:41:22.979Z,982.27
2023-04-13T23:42:22.899Z,982.26
2023-04-13T23:43:22.819Z,982.21
2023-04-13T23:44:22.731Z,982.27
2023-04-13T23:45:22.644Z,982.27
2023-04-13T23:46:23.035Z,982.24
2023-04-13T23:47:22.533Z,982.23
2023-04-13T23:48:22.423Z,982.22
2023-04-13T23:49:22.307Z,982.19
2023-04-13T23:50:22.232Z,982.20
2023-04-13T23:51:22.146Z,982.19
2023-04-13T23:52:22.117Z,982.17
2023-04-13T23:53:21.977Z,982.16
2023-04-13T23:54:21.888Z,982.15
2023-04-13T23:55:21.808Z,982.18
2023-04-13T23:56:21.726Z,982.20
2023-04-13T23:57:21.643Z,982.19
2023-04-13T23:58:21.553Z,982.23
2023-04-13T23:59:21.475Z,982.26
